This is the latest recevied weather packets stored in our database for station/object ENRA. If no packets are shown the sender has not sent any weather packets the latest 10 day(s).
| Time | Temp. | Humidity | Pressure | Rain* | Wind** | Luminosity | Snow |
|---|---|---|---|---|---|---|---|
| 1787927588 | 20.56° C | 49% | 1015 hPa | - | - | - | - |
| 1787923987 | 20.56° C | 49% | 1016 hPa | - | - | - | - |
| 1787922188 | 21.67° C | 49% | 1016 hPa | - | - | - | - |
| 1787920387 | 22.78° C | 43% | 1016 hPa | - | - | - | - |
| 1787918587 | 22.78° C | 46% | 1016 hPa | - | - | - | - |
| 1787916787 | 22.78° C | 46% | 1016 hPa | - | - | - | - |
| 1787914987 | 20.56° C | 52% | 1017 hPa | - | - | - | - |
| 1787913187 | 21.67° C | 53% | 1017 hPa | - | - | - | - |
| 1787911387 | 20.56° C | 56% | 1017 hPa | - | - | - | - |
| 1787909588 | 20° C | 56% | 1018 hPa | - | - | - | - |
| 1787907789 | 17.78° C | 63% | 1018 hPa | - | - | - | - |
| 1787905987 | 16.67° C | 63% | 1018 hPa | - | - | - | - |
| 1787904187 | 15° C | 72% | 1018 hPa | - | - | - | - |
| 1787902391 | 13.89° C | 82% | 1018 hPa | - | - | - | - |
| 1787900587 | 12.78° C | 76% | 1019 hPa | - | - | - | - |
| 1787898787 | 11.67° C | 81% | 1019 hPa | - | - | - | - |
| 1787896987 | 10.56° C | 87% | 1019 hPa | - | - | - | - |
| 1787895187 | 10.56° C | 87% | 1019 hPa | - | - | - | - |
| 1787893388 | 10° C | 87% | 1020 hPa | - | - | - | - |
| 1787891588 | 8.89° C | 93% | 1020 hPa | - | - | - | - |
| 1787889787 | 8.89° C | 93% | 1020 hPa | - | - | - | - |
| 1787887987 | 7.78° C | 93% | 1020 hPa | - | - | - | - |
| 1787886187 | 8.89° C | 87% | 1020 hPa | - | - | - | - |
| 1787884387 | 8.89° C | 93% | 1021 hPa | - | - | - | - |
| 1787882587 | 8.89° C | 87% | 1021 hPa | - | - | - | - |
* Rain since midnight (hover to see other rain measurements)
** Current wind speed in m/s (hover to see current wind gust speed)